Time;durP1;ratioP1;P1;durP2;ratioP2;P2;SDS_P1;SDS_P2;PMS_P1;PMS_P2;Temp;Humidity;BMP_temperature;BMP_pressure;BME280_temperature;BME280_humidity;BME280_pressure;Samples;Min_cycle;Max_cycle;Signal;HPM_P1;HPM_P2
2023/04/28 00:00:46;;;;;;;6.07;3.38;;;12.30;99.90;;;;;;5057971;28;20063;-52
2023/04/28 00:03:12;;;;;;;5.10;3.17;;;12.40;99.90;;;;;;5072465;28;20056;-51
2023/04/28 00:05:38;;;;;;;5.95;3.50;;;12.40;99.90;;;;;;5072393;28;20728;-46
2023/04/28 00:08:04;;;;;;;6.03;3.65;;;12.40;99.90;;;;;;5063988;28;20123;-49
2023/04/28 00:10:30;;;;;;;5.28;3.47;;;12.30;99.90;;;;;;5052163;28;20033;-50
2023/04/28 00:12:56;;;;;;;6.78;4.32;;;12.30;99.90;;;;;;5052202;28;20059;-51
2023/04/28 00:15:22;;;;;;;6.68;4.57;;;12.30;99.90;;;;;;5034439;28;20171;-52
2023/04/28 00:17:47;;;;;;;7.18;4.90;;;12.40;99.90;;;;;;5041918;28;20025;-50
2023/04/28 00:20:13;;;;;;;7.25;4.70;;;12.30;99.90;;;;;;5052303;28;20029;-53
2023/04/28 00:22:39;;;;;;;9.02;4.97;;;12.30;99.90;;;;;;5051980;28;20534;-52
2023/04/28 00:25:05;;;;;;;6.68;4.10;;;12.30;99.90;;;;;;5051996;28;20108;-53
2023/04/28 00:27:32;;;;;;;8.02;4.05;;;12.30;99.90;;;;;;5051803;28;20029;-53
2023/04/28 00:29:58;;;;;;;7.68;4.82;;;12.30;99.90;;;;;;5051726;28;20025;-51
2023/04/28 00:32:23;;;;;;;6.53;3.78;;;12.30;99.90;;;;;;5051799;28;20380;-47
2023/04/28 00:34:50;;;;;;;7.20;3.58;;;12.30;99.90;;;;;;5051611;28;20032;-48
2023/04/28 00:37:16;;;;;;;6.47;4.10;;;12.30;99.90;;;;;;5051980;28;20055;-53
2023/04/28 00:39:45;;;;;;;6.20;4.03;;;12.30;99.90;;;;;;5051447;28;20052;-50
2023/04/28 00:42:14;;;;;;;;;;;12.30;99.90;;;;;;5052344;28;20021;-49
2023/04/28 00:44:40;;;;;;;5.37;3.50;;;12.20;99.90;;;;;;5051318;28;20002;-51
2023/04/28 00:47:08;;;;;;;6.03;3.72;;;12.20;99.90;;;;;;5050611;28;20128;-50
2023/04/28 00:49:35;;;;;;;6.57;3.60;;;12.20;99.90;;;;;;5051101;28;20423;-51
2023/04/28 00:52:06;;;;;;;6.32;3.83;;;12.20;99.90;;;;;;5051557;28;20025;-50
2023/04/28 00:54:36;;;;;;;5.50;3.30;;;12.20;99.90;;;;;;5051045;28;20047;-51
2023/04/28 00:57:02;;;;;;;5.68;3.47;;;12.20;99.90;;;;;;5051171;28;20033;-50
2023/04/28 00:59:31;;;;;;;6.38;3.83;;;12.20;99.90;;;;;;5050816;28;20032;-52
2023/04/28 01:01:58;;;;;;;6.05;3.53;;;12.20;99.90;;;;;;5048425;28;20021;-50
2023/04/28 01:04:27;;;;;;;6.50;4.18;;;12.20;99.90;;;;;;5051022;28;20459;-46
2023/04/28 01:06:55;;;;;;;6.50;3.70;;;12.20;99.90;;;;;;5050047;28;20025;-56
2023/04/28 01:09:20;;;;;;;6.40;3.83;;;12.20;99.90;;;;;;5069037;28;20178;-58
2023/04/28 01:11:46;;;;;;;7.78;4.35;;;12.20;99.90;;;;;;5052967;28;20103;-47
2023/04/28 01:14:12;;;;;;;8.30;4.45;;;12.20;99.90;;;;;;5050371;28;20049;-51
2023/04/28 01:16:39;;;;;;;7.63;4.57;;;12.20;99.90;;;;;;5047325;28;20029;-49
2023/04/28 01:19:20;;;;;;;9.15;5.22;;;12.20;99.90;;;;;;5050781;28;20036;-51
2023/04/28 01:21:46;;;;;;;11.27;6.10;;;12.20;99.90;;;;;;5050658;28;20104;-52
2023/04/28 01:24:11;;;;;;;10.93;6.78;;;12.30;99.90;;;;;;5050895;28;20147;-46
2023/04/28 01:26:37;;;;;;;10.40;6.80;;;12.20;99.90;;;;;;5050928;28;20017;-46
2023/04/28 01:29:02;;;;;;;17.58;7.88;;;12.20;99.90;;;;;;5050516;28;20074;-45
2023/04/28 01:31:29;;;;;;;16.23;8.02;;;12.20;99.90;;;;;;5050332;28;20139;-47
2023/04/28 01:33:55;;;;;;;19.27;9.07;;;12.20;99.90;;;;;;5050166;28;20033;-46
2023/04/28 01:36:22;;;;;;;13.30;7.75;;;12.10;99.90;;;;;;5059557;28;20027;-47
2023/04/28 01:38:48;;;;;;;17.98;8.65;;;12.10;99.90;;;;;;5055896;28;20099;-46
2023/04/28 01:41:14;;;;;;;19.50;8.30;;;12.10;99.90;;;;;;5070558;28;20482;-46
2023/04/28 01:43:40;;;;;;;18.10;8.77;;;12.10;99.90;;;;;;5070583;28;20032;-52
2023/04/28 01:46:05;;;;;;;23.75;8.85;;;12.10;99.90;;;;;;5070101;28;20029;-52
2023/04/28 01:48:31;;;;;;;16.63;7.82;;;12.10;99.90;;;;;;5056822;28;20055;-48
2023/04/28 01:50:56;;;;;;;15.18;7.75;;;12.00;99.90;;;;;;5054687;28;20075;-50
2023/04/28 01:53:22;;;;;;;15.07;8.07;;;12.00;99.90;;;;;;5048918;28;20163;-49
2023/04/28 01:55:48;;;;;;;17.73;8.60;;;12.10;99.90;;;;;;5046414;28;20383;-47
2023/04/28 01:58:13;;;;;;;20.98;8.68;;;12.00;99.90;;;;;;5049736;28;20031;-51
2023/04/28 02:00:39;;;;;;;15.90;8.15;;;12.00;99.90;;;;;;5049805;28;20021;-49
2023/04/28 02:03:05;;;;;;;15.20;7.78;;;12.00;99.90;;;;;;5050338;28;20029;-51
2023/04/28 02:05:30;;;;;;;18.48;8.70;;;12.00;99.90;;;;;;5049764;28;20357;-46
2023/04/28 02:07:56;;;;;;;18.52;8.38;;;12.00;99.90;;;;;;5049873;28;20071;-46
2023/04/28 02:10:22;;;;;;;18.70;8.40;;;12.00;99.90;;;;;;5049786;28;20483;-46
2023/04/28 02:12:48;;;;;;;14.30;7.13;;;12.00;99.90;;;;;;5049407;28;20040;-48
2023/04/28 02:15:14;;;;;;;16.85;7.20;;;12.00;99.90;;;;;;5049016;28;20049;-50
2023/04/28 02:17:40;;;;;;;14.13;7.55;;;12.00;99.90;;;;;;5048923;28;20063;-49
2023/04/28 02:20:06;;;;;;;12.48;6.18;;;12.00;99.90;;;;;;5047631;28;20423;-54
2023/04/28 02:22:32;;;;;;;11.10;6.35;;;12.00;99.90;;;;;;5049535;28;20112;-50
2023/04/28 02:24:57;;;;;;;9.90;5.60;;;12.00;99.90;;;;;;5048273;28;20456;-53
2023/04/28 02:27:23;;;;;;;8.57;5.07;;;12.00;99.90;;;;;;5049279;28;20127;-55
2023/04/28 02:29:48;;;;;;;8.68;4.38;;;12.00;99.90;;;;;;5049068;28;20029;-50
2023/04/28 02:32:14;;;;;;;11.18;5.35;;;12.00;99.90;;;;;;5049026;28;20021;-54
2023/04/28 02:34:39;;;;;;;8.32;3.58;;;12.00;99.90;;;;;;5049311;28;20124;-50
2023/04/28 02:37:05;;;;;;;9.48;4.25;;;12.00;99.90;;;;;;5049343;28;20075;-51
2023/04/28 02:39:31;;;;;;;9.00;4.25;;;12.00;99.90;;;;;;5049471;28;20028;-49
2023/04/28 02:41:57;;;;;;;9.02;4.40;;;11.90;99.90;;;;;;5049428;28;20027;-54
2023/04/28 02:44:23;;;;;;;13.65;4.65;;;11.90;99.90;;;;;;5049378;28;20029;-51
2023/04/28 02:46:49;;;;;;;7.72;4.40;;;11.90;99.90;;;;;;5045167;28;20037;-55
2023/04/28 02:49:15;;;;;;;5.47;3.13;;;11.90;99.90;;;;;;5049296;28;20116;-56
2023/04/28 02:51:40;;;;;;;8.00;4.07;;;11.90;99.90;;;;;;5049634;28;20043;-53
2023/04/28 02:54:06;;;;;;;6.03;3.47;;;11.90;99.90;;;;;;5049099;28;20446;-55
2023/04/28 02:56:33;;;;;;;6.15;3.17;;;11.90;99.90;;;;;;5049540;28;20028;-59
2023/04/28 02:58:59;;;;;;;6.70;2.92;;;11.80;99.90;;;;;;5049320;28;20063;-50
2023/04/28 03:01:25;;;;;;;4.93;2.60;;;11.80;99.90;;;;;;5049680;28;20063;-46
2023/04/28 03:03:50;;;;;;;7.13;3.00;;;11.80;99.90;;;;;;5049385;28;20036;-49
2023/04/28 03:06:16;;;;;;;6.68;2.42;;;11.80;99.90;;;;;;5049251;28;20020;-47
2023/04/28 03:08:41;;;;;;;4.72;2.50;;;11.70;99.90;;;;;;5049047;28;20418;-51
2023/04/28 03:11:07;;;;;;;5.50;2.33;;;11.70;99.90;;;;;;5048883;28;20028;-56
2023/04/28 03:13:34;;;;;;;4.20;2.13;;;11.70;99.90;;;;;;5048830;28;20126;-46
2023/04/28 03:16:00;;;;;;;4.53;2.65;;;11.70;99.90;;;;;;5064266;28;20025;-47
2023/04/28 03:18:26;;;;;;;5.53;2.60;;;11.70;99.90;;;;;;5064087;28;20242;-48
2023/04/28 03:20:51;;;;;;;4.28;2.33;;;11.70;99.90;;;;;;5069619;28;20025;-52
2023/04/28 03:23:17;;;;;;;6.20;2.30;;;11.70;99.90;;;;;;5069231;28;20100;-51
2023/04/28 03:25:42;;;;;;;6.93;2.30;;;11.60;99.90;;;;;;5071198;28;20016;-50
2023/04/28 03:28:09;;;;;;;7.53;2.40;;;11.70;99.90;;;;;;5072305;28;20067;-49
2023/04/28 03:30:35;;;;;;;4.10;2.28;;;11.70;99.90;;;;;;5072630;28;20024;-48
2023/04/28 03:33:00;;;;;;;3.97;2.05;;;11.70;99.90;;;;;;5072888;28;20094;-50
2023/04/28 03:35:26;;;;;;;5.68;2.08;;;11.70;99.90;;;;;;5073187;28;20017;-47
2023/04/28 03:37:52;;;;;;;5.57;2.15;;;11.60;99.90;;;;;;5054382;28;20395;-50
2023/04/28 03:40:18;;;;;;;6.10;2.22;;;11.60;99.90;;;;;;5072718;28;20025;-53
2023/04/28 03:42:43;;;;;;;5.88;2.08;;;11.60;99.90;;;;;;5072476;28;20033;-49
2023/04/28 03:45:09;;;;;;;3.78;1.90;;;11.60;99.90;;;;;;5072026;28;20032;-47
2023/04/28 03:47:35;;;;;;;5.13;2.17;;;11.60;99.90;;;;;;5059389;28;20029;-50
2023/04/28 03:50:01;;;;;;;5.95;2.08;;;11.60;99.90;;;;;;5037999;28;20108;-49
2023/04/28 03:52:27;;;;;;;8.07;2.10;;;11.60;99.90;;;;;;5060625;28;20048;-46
2023/04/28 03:54:52;;;;;;;5.13;1.90;;;11.60;99.90;;;;;;5072391;28;20480;-54
2023/04/28 03:57:18;;;;;;;5.20;2.05;;;11.60;99.90;;;;;;5072344;28;20063;-50
2023/04/28 03:59:44;;;;;;;5.70;1.95;;;11.50;99.90;;;;;;5072345;28;20032;-47
2023/04/28 04:02:10;;;;;;;5.20;1.85;;;11.50;99.90;;;;;;5072189;28;20035;-47
2023/04/28 04:04:35;;;;;;;4.18;1.88;;;11.60;99.90;;;;;;5054368;28;20032;-51
2023/04/28 04:07:03;;;;;;;4.22;1.85;;;11.50;99.90;;;;;;5071750;28;20048;-49
2023/04/28 04:09:28;;;;;;;5.53;1.75;;;11.50;99.90;;;;;;5071149;28;20028;-49
2023/04/28 04:11:54;;;;;;;3.72;1.80;;;11.50;99.90;;;;;;5052033;28;20028;-48
2023/04/28 04:14:20;;;;;;;8.98;2.33;;;11.50;99.90;;;;;;5051704;28;20045;-53
2023/04/28 04:16:47;;;;;;;6.88;2.05;;;11.50;99.90;;;;;;5049285;28;20388;-47
2023/04/28 04:19:12;;;;;;;2.33;1.63;;;11.50;99.90;;;;;;5042789;28;20107;-53
2023/04/28 04:21:38;;;;;;;5.68;2.00;;;11.50;99.90;;;;;;5052026;28;20651;-50
2023/04/28 04:24:04;;;;;;;7.15;2.63;;;11.50;99.90;;;;;;5051825;28;20036;-51
2023/04/28 04:26:30;;;;;;;4.50;2.40;;;11.50;99.90;;;;;;5051413;28;20488;-47
2023/04/28 04:28:55;;;;;;;6.55;2.40;;;11.50;99.90;;;;;;5051594;28;20099;-47
2023/04/28 04:31:21;;;;;;;5.63;2.20;;;11.40;99.90;;;;;;5051950;28;20021;-49
2023/04/28 04:33:47;;;;;;;6.35;2.38;;;11.40;99.90;;;;;;5051567;28;20048;-52
2023/04/28 04:36:13;;;;;;;11.23;2.67;;;11.40;99.90;;;;;;5052153;28;20031;-52
2023/04/28 04:38:38;;;;;;;6.07;2.30;;;11.40;99.90;;;;;;5051472;28;20028;-52
2023/04/28 04:41:04;;;;;;;5.55;2.22;;;11.40;99.90;;;;;;5051489;28;20074;-51
2023/04/28 04:43:29;;;;;;;4.75;2.05;;;11.40;99.90;;;;;;5051002;28;20028;-50
2023/04/28 04:45:55;;;;;;;5.22;2.00;;;11.40;99.90;;;;;;5051260;28;20029;-54
2023/04/28 04:48:21;;;;;;;10.35;2.15;;;11.40;99.90;;;;;;5048520;28;20068;-49
2023/04/28 04:50:47;;;;;;;3.63;2.15;;;11.40;99.90;;;;;;5051309;28;20025;-50
2023/04/28 04:53:12;;;;;;;6.60;2.13;;;11.40;99.90;;;;;;5051648;28;20041;-47
2023/04/28 04:55:38;;;;;;;3.70;2.20;;;11.40;99.90;;;;;;5051113;28;20036;-49
2023/04/28 04:58:04;;;;;;;9.88;2.40;;;11.40;99.90;;;;;;5050944;28;20096;-49
2023/04/28 05:00:29;;;;;;;5.43;1.77;;;11.40;99.90;;;;;;5050925;28;20047;-52
2023/04/28 05:02:55;;;;;;;5.20;1.90;;;11.40;99.90;;;;;;5051430;28;20021;-51
2023/04/28 05:05:20;;;;;;;5.10;2.38;;;11.40;99.90;;;;;;5050930;28;20464;-47
2023/04/28 05:07:46;;;;;;;3.42;1.90;;;11.40;99.90;;;;;;5050070;28;20017;-50
2023/04/28 05:10:12;;;;;;;4.30;2.00;;;11.40;99.90;;;;;;5050783;28;20032;-47
2023/04/28 05:12:38;;;;;;;6.07;2.08;;;11.50;99.90;;;;;;5050980;28;20116;-53
2023/04/28 05:15:07;;;;;;;3.65;2.10;;;11.50;99.90;;;;;;5050375;28;20045;-50
2023/04/28 05:17:33;;;;;;;4.38;2.22;;;11.50;99.90;;;;;;5047506;28;20519;-55
2023/04/28 05:19:59;;;;;;;7.47;2.75;;;11.50;99.90;;;;;;5050448;28;20052;-49
2023/04/28 05:22:25;;;;;;;8.15;3.90;;;11.50;99.90;;;;;;5050504;28;20024;-51
2023/04/28 05:24:51;;;;;;;6.57;2.20;;;11.50;99.90;;;;;;5050591;28;20029;-51
2023/04/28 05:27:18;;;;;;;7.22;2.25;;;11.60;99.90;;;;;;5050365;28;20031;-53
2023/04/28 05:29:44;;;;;;;3.88;2.53;;;11.50;99.90;;;;;;5050631;28;20029;-53
2023/04/28 05:32:09;;;;;;;5.10;2.08;;;11.60;99.90;;;;;;5050153;28;20071;-50
2023/04/28 05:34:35;;;;;;;5.53;2.10;;;11.60;99.90;;;;;;5050499;28;20068;-55
2023/04/28 05:37:01;;;;;;;8.73;2.63;;;11.60;99.90;;;;;;5032230;28;20108;-48
2023/04/28 05:39:26;;;;;;;4.50;2.28;;;11.60;99.90;;;;;;5049805;28;20052;-47
2023/04/28 05:41:52;;;;;;;6.90;2.33;;;11.70;99.90;;;;;;5049825;28;20029;-46
2023/04/28 05:44:17;;;;;;;3.38;1.98;;;11.70;99.90;;;;;;5050162;28;20318;-49
2023/04/28 05:46:43;;;;;;;7.18;2.75;;;11.70;99.90;;;;;;5049476;28;20135;-49
2023/04/28 05:49:10;;;;;;;5.95;2.40;;;11.70;99.90;;;;;;5049930;28;20607;-52
2023/04/28 05:51:35;;;;;;;6.60;2.50;;;11.70;99.90;;;;;;5050212;28;20017;-52
2023/04/28 05:54:01;;;;;;;9.40;2.75;;;11.80;99.90;;;;;;5050646;28;20498;-52
2023/04/28 05:56:27;;;;;;;7.10;2.67;;;11.70;99.90;;;;;;5050122;28;20025;-50
2023/04/28 05:58:53;;;;;;;8.50;2.53;;;11.80;99.90;;;;;;5050403;28;20438;-51
2023/04/28 06:01:18;;;;;;;7.10;2.70;;;11.80;99.90;;;;;;5050226;28;20490;-51
2023/04/28 06:03:44;;;;;;;5.82;2.63;;;11.80;99.90;;;;;;5049809;28;20394;-51
2023/04/28 06:06:11;;;;;;;8.88;2.97;;;11.80;99.90;;;;;;5066317;28;20078;-49
2023/04/28 06:08:37;;;;;;;9.40;2.90;;;11.80;99.90;;;;;;5062779;28;20049;-56
2023/04/28 06:11:03;;;;;;;8.32;3.67;;;11.80;99.90;;;;;;5050642;28;20033;-48
2023/04/28 06:13:28;;;;;;;6.40;3.20;;;11.90;99.90;;;;;;5051745;28;20052;-56
2023/04/28 06:15:54;;;;;;;6.28;3.30;;;11.90;99.90;;;;;;5070559;28;20093;-49
2023/04/28 06:18:20;;;;;;;11.10;3.63;;;11.90;99.90;;;;;;5065576;28;20116;-47
2023/04/28 06:20:45;;;;;;;8.70;3.17;;;12.10;99.90;;;;;;5049912;28;20017;-48
2023/04/28 06:23:11;;;;;;;5.45;3.00;;;12.10;99.90;;;;;;5020927;28;20052;-57
2023/04/28 06:25:37;;;;;;;7.20;3.35;;;12.20;99.90;;;;;;5050146;28;20021;-50
2023/04/28 06:28:03;;;;;;;7.13;3.20;;;12.30;99.90;;;;;;5049511;28;20049;-48
2023/04/28 06:30:28;;;;;;;6.30;3.30;;;12.50;99.90;;;;;;5050300;28;20025;-49
2023/04/28 06:32:56;;;;;;;4.97;2.92;;;12.60;99.90;;;;;;5055931;28;20051;-52
2023/04/28 06:35:22;;;;;;;6.63;2.90;;;12.80;99.90;;;;;;5070467;28;20024;-46
2023/04/28 06:37:48;;;;;;;4.40;2.50;;;12.90;99.90;;;;;;5070558;28;20020;-47
2023/04/28 06:40:14;;;;;;;7.10;2.97;;;12.90;99.90;;;;;;5070607;28;20040;-51
2023/04/28 06:42:40;;;;;;;6.65;2.47;;;13.00;99.90;;;;;;5070507;28;20536;-49
2023/04/28 06:45:06;;;;;;;8.13;2.95;;;13.00;99.90;;;;;;5059958;28;20063;-50
2023/04/28 06:47:31;;;;;;;5.35;2.95;;;13.10;99.90;;;;;;5049791;28;20029;-45
2023/04/28 06:50:00;;;;;;;5.38;2.58;;;13.10;99.90;;;;;;5047984;28;20036;-48
2023/04/28 06:52:30;;;;;;;8.50;2.50;;;13.10;99.90;;;;;;5049117;28;20484;-48
2023/04/28 06:54:55;;;;;;;7.93;3.25;;;13.10;99.90;;;;;;5048559;28;20083;-46
2023/04/28 06:57:21;;;;;;;4.78;2.50;;;13.10;99.90;;;;;;5049322;28;20056;-50
2023/04/28 06:59:47;;;;;;;7.57;2.78;;;13.00;99.90;;;;;;5050064;28;20700;-47
2023/04/28 07:02:13;;;;;;;4.05;2.72;;;13.00;99.90;;;;;;5041367;28;20083;-46
2023/04/28 07:04:38;;;;;;;6.35;3.08;;;12.90;99.90;;;;;;5039986;28;20108;-46
2023/04/28 07:07:08;;;;;;;7.20;3.40;;;12.90;99.90;;;;;;5047593;28;20103;-51
2023/04/28 07:09:34;;;;;;;11.93;5.00;;;12.80;99.90;;;;;;5051781;28;20080;-51
2023/04/28 07:12:00;;;;;;;6.70;3.72;;;12.80;99.90;;;;;;5052579;28;20503;-50
2023/04/28 07:14:26;;;;;;;8.32;3.92;;;12.80;99.90;;;;;;5053242;28;20076;-48
2023/04/28 07:16:51;;;;;;;7.47;3.95;;;12.90;99.90;;;;;;5053165;28;20033;-50
2023/04/28 07:19:17;;;;;;;6.30;3.40;;;13.00;99.90;;;;;;5053382;28;20043;-53
2023/04/28 07:21:43;;;;;;;5.97;3.38;;;13.00;99.90;;;;;;5053174;28;20025;-55
2023/04/28 07:24:09;;;;;;;6.47;3.38;;;13.10;99.90;;;;;;5053941;28;20025;-46
2023/04/28 07:26:34;;;;;;;7.18;4.18;;;13.20;99.90;;;;;;5051566;28;20388;-48
2023/04/28 07:29:00;;;;;;;7.43;3.53;;;13.20;99.90;;;;;;5053649;28;20063;-51
2023/04/28 07:31:27;;;;;;;21.83;7.18;;;13.30;99.90;;;;;;5053240;28;20425;-46
2023/04/28 07:33:53;;;;;;;6.03;3.35;;;13.30;99.90;;;;;;5053192;28;20044;-56
2023/04/28 07:36:19;;;;;;;9.40;4.15;;;13.30;99.90;;;;;;5053215;28;20104;-51
2023/04/28 07:38:45;;;;;;;7.40;3.97;;;13.20;99.90;;;;;;5053414;28;20100;-51
2023/04/28 07:41:11;;;;;;;8.77;3.63;;;13.30;99.90;;;;;;5051620;28;20024;-52
2023/04/28 07:43:37;;;;;;;8.10;4.07;;;13.30;99.90;;;;;;5053331;28;20434;-50
2023/04/28 07:46:02;;;;;;;8.68;4.10;;;13.40;99.90;;;;;;5053102;28;20021;-52
2023/04/28 07:48:28;;;;;;;9.40;4.47;;;13.40;99.90;;;;;;5049490;28;20468;-47
2023/04/28 07:50:53;;;;;;;9.30;4.38;;;13.40;99.90;;;;;;5046476;28;20105;-46
2023/04/28 07:53:20;;;;;;;9.02;4.22;;;13.40;99.90;;;;;;5044659;28;20044;-52
2023/04/28 07:55:45;;;;;;;9.80;4.20;;;13.40;99.90;;;;;;5053078;28;20079;-50
2023/04/28 07:58:11;;;;;;;9.73;4.50;;;13.40;99.90;;;;;;5052501;28;20024;-47
2023/04/28 08:00:37;;;;;;;6.50;3.65;;;13.40;99.90;;;;;;5052460;28;20108;-48
2023/04/28 08:03:03;;;;;;;8.43;3.70;;;13.40;99.90;;;;;;5059478;28;20115;-50
2023/04/28 08:05:29;;;;;;;7.35;3.70;;;13.50;99.90;;;;;;5070691;28;20021;-55
2023/04/28 08:07:54;;;;;;;12.57;3.55;;;13.40;99.90;;;;;;5063864;28;20027;-55
2023/04/28 08:10:20;;;;;;;10.30;3.97;;;13.30;99.90;;;;;;5054179;28;20017;-53
2023/04/28 08:12:46;;;;;;;8.80;4.18;;;13.30;99.90;;;;;;5056696;28;20066;-49
2023/04/28 08:15:12;;;;;;;9.82;4.15;;;13.30;99.90;;;;;;5072640;28;20052;-49
2023/04/28 08:17:37;;;;;;;8.85;3.80;;;13.30;99.90;;;;;;5046009;28;20372;-50
2023/04/28 08:20:04;;;;;;;7.78;3.90;;;13.30;99.90;;;;;;5071826;28;20174;-50
2023/04/28 08:22:30;;;;;;;6.88;3.90;;;13.40;99.90;;;;;;5058688;28;20029;-46
2023/04/28 08:24:55;;;;;;;6.65;3.85;;;13.40;99.90;;;;;;5052381;28;20039;-51
2023/04/28 08:27:22;;;;;;;7.70;3.50;;;13.50;99.90;;;;;;5052193;28;20103;-51
2023/04/28 08:29:48;;;;;;;5.55;3.25;;;13.60;99.90;;;;;;5034504;28;20025;-47
2023/04/28 08:32:14;;;;;;;5.70;2.85;;;13.60;99.90;;;;;;5052276;28;20480;-48
2023/04/28 08:34:40;;;;;;;5.53;3.25;;;13.60;99.90;;;;;;5051900;28;20060;-48
2023/04/28 08:37:05;;;;;;;7.75;3.05;;;13.60;99.90;;;;;;5051954;28;20068;-46
2023/04/28 08:39:33;;;;;;;4.88;2.90;;;13.70;99.90;;;;;;5047100;28;20100;-47
2023/04/28 08:41:58;;;;;;;6.65;2.40;;;13.70;99.90;;;;;;5052209;28;20032;-48
2023/04/28 08:44:24;;;;;;;6.28;2.50;;;13.80;99.90;;;;;;5052139;28;20029;-49
2023/04/28 08:46:55;;;;;;;5.90;2.95;;;13.90;99.90;;;;;;5052075;28;20064;-49
2023/04/28 08:49:25;;;;;;;4.50;2.83;;;13.80;99.90;;;;;;5044120;28;20076;-50
2023/04/28 08:51:59;;;;;;;5.97;3.00;;;13.90;99.90;;;;;;5051610;28;20037;-50
2023/04/28 08:54:30;;;;;;;5.75;3.55;;;13.80;99.90;;;;;;5051585;28;20037;-45
2023/04/28 08:56:57;;;;;;;5.47;2.90;;;13.90;99.90;;;;;;5050522;28;20029;-45
2023/04/28 08:59:23;;;;;;;5.03;2.80;;;14.00;99.90;;;;;;5051825;28;20426;-45
2023/04/28 09:01:49;;;;;;;5.35;2.45;;;14.20;99.90;;;;;;5051925;28;20017;-47
2023/04/28 09:04:18;;;;;;;3.40;2.15;;;14.40;99.90;;;;;;5051684;28;20032;-49
2023/04/28 09:06:45;;;;;;;4.22;2.20;;;14.40;99.90;;;;;;5051799;28;20051;-53
2023/04/28 09:09:24;;;;;;;5.68;2.53;;;14.40;99.90;;;;;;5046169;28;20060;-56
2023/04/28 09:11:54;;;;;;;3.42;1.92;;;14.30;99.90;;;;;;5037858;28;20028;-50
2023/04/28 09:14:20;;;;;;;4.13;2.40;;;14.10;99.90;;;;;;5051481;28;20384;-50
2023/04/28 09:16:46;;;;;;;5.55;2.72;;;14.00;99.90;;;;;;5051627;28;20017;-49
2023/04/28 09:19:11;;;;;;;4.07;2.63;;;14.10;99.90;;;;;;5051699;28;20131;-52
2023/04/28 09:21:52;;;;;;;3.30;2.15;;;14.10;99.90;;;;;;5051631;28;20032;-52
2023/04/28 09:24:42;;;;;;;3.42;2.40;;;14.20;99.90;;;;;;5033004;28;20510;-50
2023/04/28 09:27:10;;;;;;;4.07;2.40;;;14.20;99.90;;;;;;5038159;28;20036;-47
2023/04/28 09:29:37;;;;;;;3.60;2.40;;;14.20;99.90;;;;;;5051312;28;20029;-46
2023/04/28 09:32:18;;;;;;;4.80;2.22;;;14.10;99.90;;;;;;5051154;28;20553;-49
2023/04/28 09:34:49;;;;;;;4.88;2.10;;;14.20;99.90;;;;;;5051341;28;20037;-50
2023/04/28 09:37:19;;;;;;;3.90;2.03;;;14.40;99.90;;;;;;5050456;28;20032;-57
2023/04/28 09:39:45;;;;;;;;;;;14.60;99.90;;;;;;5044238;28;20121;-59
2023/04/28 09:42:45;;;;;;;4.28;1.90;;;14.90;99.90;;;;;;5043448;28;20260;-49
2023/04/28 09:45:13;;;;;;;2.33;1.73;;;15.00;99.90;;;;;;5045647;28;20463;-52
2023/04/28 09:47:42;;;;;;;4.43;1.60;;;15.20;99.90;;;;;;5062010;28;20052;-55
2023/04/28 09:50:13;;;;;;;4.50;1.90;;;15.40;99.90;;;;;;5060610;28;20017;-52
2023/04/28 09:52:40;;;;;;;5.22;2.17;;;15.30;99.90;;;;;;5070820;28;20033;-47
2023/04/28 09:55:10;;;;;;;2.85;2.05;;;15.20;99.90;;;;;;5070918;28;20024;-44
2023/04/28 09:57:37;;;;;;;3.85;2.17;;;15.20;99.90;;;;;;5051045;28;20034;-48
2023/04/28 10:00:05;;;;;;;4.63;2.10;;;15.30;99.90;;;;;;5070620;28;20069;-50
2023/04/28 10:02:33;;;;;;;2.58;1.77;;;15.50;99.90;;;;;;5070452;28;20468;-45
2023/04/28 10:04:59;;;;;;;4.63;1.75;;;15.70;99.90;;;;;;5070471;28;20048;-46
2023/04/28 10:07:26;;;;;;;3.00;1.65;;;15.90;99.90;;;;;;5070766;28;20020;-44
2023/04/28 10:09:52;;;;;;;2.25;2.03;;;15.80;99.90;;;;;;5066317;28;20048;-44
2023/04/28 10:12:22;;;;;;;3.45;1.60;;;15.80;99.90;;;;;;5047159;28;20075;-45
2023/04/28 10:14:49;;;;;;;2.95;1.63;;;15.70;99.90;;;;;;5040469;28;20052;-53
2023/04/28 10:17:19;;;;;;;4.88;2.15;;;15.70;99.90;;;;;;5046285;28;20028;-60
2023/04/28 10:19:46;;;;;;;5.43;1.95;;;15.60;99.90;;;;;;5048931;28;20075;-51
2023/04/28 10:22:46;;;;;;;2.92;1.80;;;15.70;99.90;;;;;;5049750;28;20033;-51
2023/04/28 10:25:11;;;;;;;;;;;15.60;99.90;;;;;;5050634;28;20535;-54
2023/04/28 10:27:43;;;;;;;3.25;1.58;;;15.40;99.90;;;;;;5049829;28;20023;-48
2023/04/28 10:30:17;;;;;;;3.08;1.77;;;15.30;99.90;;;;;;5050294;28;20120;-53
2023/04/28 10:32:47;;;;;;;2.60;1.63;;;15.60;99.90;;;;;;5050098;28;20025;-54
2023/04/28 10:35:28;;;;;;;;;;;16.10;99.90;;;;;;5055381;28;20097;-54
2023/04/28 10:38:20;;;;;;;1.50;0.80;;;16.40;99.90;;;;;;5061392;28;19908;-50
2023/04/28 10:40:46;;;;;;;2.58;0.80;;;16.40;99.90;;;;;;5070560;28;20029;-52
2023/04/28 10:43:32;;;;;;;1.50;0.80;;;16.30;99.90;;;;;;5070315;28;20391;-50
2023/04/28 10:46:01;;;;;;;1.67;0.70;;;16.40;99.90;;;;;;5069711;28;20495;-52
2023/04/28 10:48:32;;;;;;;0.90;0.80;;;16.20;99.90;;;;;;5066306;28;20173;-51
2023/04/28 10:51:04;;;;;;;1.02;0.70;;;16.00;99.90;;;;;;5057791;28;20057;-48
2023/04/28 10:53:44;;;;;;;1.30;0.80;;;16.10;99.90;;;;;;5049911;28;20025;-48
2023/04/28 10:56:18;;;;;;;1.30;0.70;;;16.60;99.90;;;;;;5050219;28;20064;-52
2023/04/28 10:58:48;;;;;;;4.25;0.70;;;17.00;99.90;;;;;;5049951;28;20021;-49
2023/04/28 11:01:25;;;;;;;3.15;0.60;;;17.10;99.90;;;;;;5046346;28;20033;-46
2023/04/28 11:03:59;;;;;;;1.70;0.50;;;16.90;99.90;;;;;;5031533;28;20495;-49
2023/04/28 11:06:27;;;;;;;2.33;0.50;;;16.80;99.90;;;;;;5048748;28;20033;-46
2023/04/28 11:08:55;;;;;;;1.00;0.50;;;16.60;99.90;;;;;;5049568;28;20028;-49
2023/04/28 11:11:24;;;;;;;1.08;0.50;;;17.00;99.90;;;;;;5050044;28;20051;-47
2023/04/28 11:14:11;;;;;;;0.70;0.40;;;18.00;99.90;;;;;;5049932;28;20049;-46
2023/04/28 11:17:00;;;;;;;0.68;0.45;;;18.60;99.90;;;;;;5049301;28;20047;-48
2023/04/28 11:19:29;;;;;;;0.85;0.50;;;18.30;99.90;;;;;;5049881;28;20025;-48
2023/04/28 11:21:57;;;;;;;1.10;0.52;;;17.60;99.90;;;;;;5049740;28;20044;-46
2023/04/28 11:24:24;;;;;;;0.55;0.40;;;17.00;99.90;;;;;;5050004;28;20025;-45
2023/04/28 11:26:50;;;;;;;2.55;0.50;;;16.60;99.90;;;;;;5049362;28;20455;-50
2023/04/28 11:29:16;;;;;;;0.85;0.50;;;16.50;99.90;;;;;;5049455;28;20022;-52
2023/04/28 11:31:50;;;;;;;0.70;0.60;;;16.50;99.90;;;;;;5049466;28;20033;-49
2023/04/28 11:34:21;;;;;;;0.90;0.55;;;16.60;99.90;;;;;;5049342;28;20041;-50
2023/04/28 11:36:46;;;;;;;0.90;0.60;;;16.70;99.90;;;;;;5044942;28;20021;-56
2023/04/28 11:39:14;;;;;;;2.15;0.90;;;16.80;99.90;;;;;;5049854;28;20086;-55
2023/04/28 11:41:42;;;;;;;1.27;0.85;;;17.10;99.90;;;;;;5049663;28;20594;-55
2023/04/28 11:44:23;;;;;;;2.05;0.70;;;17.80;99.90;;;;;;5049285;28;20036;-55
2023/04/28 11:46:53;;;;;;;0.57;0.57;;;17.80;99.90;;;;;;5051239;28;20029;-53
2023/04/28 11:49:20;;;;;;;1.35;0.50;;;17.50;99.90;;;;;;5035357;28;20108;-48
2023/04/28 11:51:48;;;;;;;1.13;0.50;;;17.40;99.90;;;;;;5052970;28;20058;-53
2023/04/28 11:54:19;;;;;;;0.77;0.50;;;17.40;99.90;;;;;;5052869;28;20126;-46
2023/04/28 11:56:44;;;;;;;0.60;0.50;;;17.30;99.90;;;;;;5052651;28;20100;-53
2023/04/28 11:59:11;;;;;;;1.08;0.68;;;16.90;99.90;;;;;;5046818;28;20116;-49
2023/04/28 12:01:45;;;;;;;1.10;0.60;;;17.00;99.90;;;;;;5052798;28;20036;-48
2023/04/28 12:04:11;;;;;;;2.45;0.77;;;17.00;99.90;;;;;;5052794;28;20033;-47
2023/04/28 12:06:38;;;;;;;1.38;0.63;;;16.80;99.90;;;;;;5052163;28;20104;-49
2023/04/28 12:09:24;;;;;;;2.50;0.60;;;16.80;99.90;;;;;;5052396;28;20082;-45
2023/04/28 12:12:01;;;;;;;1.08;0.70;;;16.90;99.90;;;;;;5039238;28;20554;-50
2023/04/28 12:14:27;;;;;;;1.88;0.70;;;17.10;99.90;;;;;;5052739;28;20053;-52
2023/04/28 12:16:53;;;;;;;0.93;0.52;;;17.10;99.90;;;;;;5034776;28;20057;-46
2023/04/28 12:19:19;;;;;;;0.82;0.50;;;17.20;99.90;;;;;;5052709;28;20064;-52
2023/04/28 12:22:17;;;;;;;1.15;0.70;;;17.90;99.90;;;;;;5051899;28;20464;-55
2023/04/28 12:24:44;;;;;;;1.38;0.60;;;18.70;99.90;;;;;;5008040;28;20029;-51
2023/04/28 12:27:19;;;;;;;1.08;0.63;;;19.20;99.90;;;;;;5052286;28;20369;-49
2023/04/28 12:29:45;;;;;;;1.48;0.70;;;19.70;99.90;;;;;;5052428;28;20021;-48
2023/04/28 12:32:11;;;;;;;1.15;0.70;;;19.80;99.90;;;;;;5051962;28;20029;-55
2023/04/28 12:34:39;;;;;;;1.02;0.60;;;19.70;99.90;;;;;;5052080;28;20029;-51
2023/04/28 12:37:05;;;;;;;3.60;0.60;;;19.60;99.90;;;;;;5051340;28;20494;-53
2023/04/28 12:39:33;;;;;;;2.78;0.70;;;19.50;99.90;;;;;;5052128;28;20064;-47
2023/04/28 12:41:59;;;;;;;2.55;0.90;;;19.10;99.90;;;;;;5052004;28;20021;-49
2023/04/28 12:44:26;;;;;;;1.30;0.80;;;18.60;99.90;;;;;;5052863;28;20021;-45
2023/04/28 12:46:53;;;;;;;1.52;0.80;;;18.30;99.90;;;;;;5051946;28;20021;-44